N633DC LLHZ-LLHZ

Flight info

Callsign N633DC
Flight time 0h 4m
Altitude 800
Route CVFR
Aircraft DA40/L-SDE/C

Departure

Time 2026-04-17 16:12
Airport Herzliya Airport (LLHZ)

Arrival

Time 2026-04-17 16:16
Airport Herzliya Airport (LLHZ)
Time Latitude Longitude Altitude Speed Heading
2026-04-17 16:04 32.18022 34.83307 109 ft 0 kts 24°
2026-04-17 16:05 32.18023 34.83307 109 ft 0 kts 24°
2026-04-17 16:07 32.18028 34.83358 110 ft 13 kts 117°
2026-04-17 16:07 32.17986 34.83484 113 ft 20 kts 109°
2026-04-17 16:07 32.17936 34.83649 119 ft 19 kts 112°
2026-04-17 16:08 32.17908 34.83751 124 ft 10 kts 108°
2026-04-17 16:08 32.17896 34.83791 126 ft 0 kts 109°
2026-04-17 16:08 32.17895 34.83793 126 ft 4 kts 110°
2026-04-17 16:08 32.17883 34.83837 126 ft 0 kts 108°
2026-04-17 16:09 32.17882 34.83840 128 ft 5 kts 107°
2026-04-17 16:09 32.17880 34.83851 126 ft 0 kts 86°
2026-04-17 16:10 32.17899 34.83862 129 ft 5 kts 345°
2026-04-17 16:10 32.17921 34.83827 128 ft 0 kts 291°
2026-04-17 16:11 32.18006 34.83519 162 ft 77 kts 288°
2026-04-17 16:11 32.18195 34.82815 411 ft 88 kts 302°
2026-04-17 16:11 32.18743 34.82808 642 ft 104 kts 25°
2026-04-17 16:12 32.19307 34.83225 807 ft 92 kts 74°
2026-04-17 16:12 32.19135 34.83970 768 ft 100 kts 106°
2026-04-17 16:12 32.18957 34.84754 782 ft 109 kts 113°
2026-04-17 16:12 32.18509 34.85469 860 ft 101 kts 160°
2026-04-17 16:13 32.17870 34.85302 642 ft 98 kts 203°
2026-04-17 16:13 32.17635 34.84748 463 ft 82 kts 301°
2026-04-17 16:13 32.17806 34.84202 243 ft 72 kts 290°
2026-04-17 16:13 32.17956 34.83701 123 ft 55 kts 293°
2026-04-17 16:14 32.18374 34.82610 538 ft 79 kts 336°
2026-04-17 16:14 32.18927 34.82778 643 ft 90 kts 23°
2026-04-17 16:14 32.19334 34.83304 871 ft 97 kts 88°
2026-04-17 16:15 32.18991 34.84077 876 ft 115 kts 115°
2026-04-17 16:15 32.18714 34.84986 730 ft 111 kts 102°
2026-04-17 16:15 32.18397 34.85525 697 ft 73 kts 209°
2026-04-17 16:15 32.17844 34.85278 559 ft 98 kts 199°
2026-04-17 16:16 32.17606 34.84826 387 ft 66 kts 303°
2026-04-17 16:16 32.17763 34.84360 290 ft 72 kts 285°
2026-04-17 16:16 32.17907 34.83868 152 ft 57 kts 292°
2026-04-17 16:16 32.18021 34.83493 111 ft 40 kts 290°
2026-04-17 16:17 32.18190 34.82965 213 ft 91 kts 298°
2026-04-17 16:17 32.18655 34.82614 526 ft 103 kts 14°
2026-04-17 16:17 32.19312 34.82922 703 ft 89 kts 14°
2026-04-17 16:17 32.19897 34.82902 843 ft 86 kts 319°
2026-04-17 16:18 32.20203 34.82238 1049 ft 93 kts 300°
2026-04-17 16:18 32.20545 34.81475 1235 ft 107 kts 295°
2026-04-17 16:18 32.20307 34.80787 1213 ft 101 kts 212°
2026-04-17 16:18 32.19717 34.80453 1099 ft 94 kts 204°
2026-04-17 16:19 32.19062 34.80225 993 ft 102 kts 195°
2026-04-17 16:19 32.18392 34.79827 826 ft 105 kts 206°
2026-04-17 16:19 32.17716 34.79513 790 ft 103 kts 206°
2026-04-17 16:19 32.17053 34.79245 818 ft 104 kts 191°
2026-04-17 16:20 32.16344 34.79220 733 ft 107 kts 192°
2026-04-17 16:20 32.15705 34.78778 729 ft 104 kts 214°
2026-04-17 16:20 32.15026 34.78476 732 ft 103 kts 199°
2026-04-17 16:20 32.14348 34.78231 844 ft 101 kts 204°
2026-04-17 16:21 32.13693 34.77874 854 ft 104 kts 202°
2026-04-17 16:21 32.13021 34.77527 876 ft 106 kts 208°
2026-04-17 16:21 32.12342 34.77183 882 ft 107 kts 202°
2026-04-17 16:21 32.11655 34.76860 930 ft 103 kts 199°
2026-04-17 16:22 32.10951 34.76623 914 ft 110 kts 185°
2026-04-17 16:22 32.10188 34.76583 901 ft 107 kts 198°
2026-04-17 16:22 32.09714 34.75931 952 ft 111 kts 235°
2026-04-17 16:22 32.09044 34.75422 983 ft 120 kts 194°
2026-04-17 16:23 32.08199 34.75311 752 ft 114 kts 182°
2026-04-17 16:23 32.07434 34.75086 809 ft 116 kts 202°
2026-04-17 16:23 32.06658 34.74729 794 ft 124 kts 203°
2026-04-17 16:23 32.05823 34.74493 779 ft 129 kts 196°
2026-04-17 16:24 32.04968 34.74211 743 ft 127 kts 210°
2026-04-17 16:24 32.04269 34.73724 943 ft 116 kts 209°
2026-04-17 16:24 32.03517 34.73421 853 ft 104 kts 186°
2026-04-17 16:24 32.02796 34.73390 822 ft 108 kts 182°
2026-04-17 16:25 32.02000 34.73307 829 ft 121 kts 187°
2026-04-17 16:25 32.01154 34.73088 771 ft 135 kts 226°
2026-04-17 16:25 32.01313 34.72204 843 ft 124 kts 335°
2026-04-17 16:25 32.02072 34.72550 968 ft 122 kts 39°
2026-04-17 16:26 32.02798 34.73013 1136 ft 124 kts 20°
2026-04-17 16:26 32.03600 34.73262 1365 ft 119 kts
2026-04-17 16:26 32.04473 34.73436 1322 ft 134 kts
2026-04-17 16:26 32.05418 34.73595 1256 ft 134 kts 15°
2026-04-17 16:27 32.06228 34.74089 1365 ft 123 kts 30°
2026-04-17 16:27 32.07017 34.74553 1066 ft 144 kts 29°
2026-04-17 16:27 32.07794 34.75165 1165 ft 129 kts 27°
2026-04-17 16:27 32.08630 34.75496 1190 ft 126 kts 16°
2026-04-17 16:28 32.09487 34.75748 1187 ft 128 kts
2026-04-17 16:28 32.10352 34.76003 1237 ft 123 kts 26°
2026-04-17 16:28 32.11107 34.76418 1382 ft 122 kts 23°
2026-04-17 16:28 32.11907 34.76747 1180 ft 111 kts 18°
2026-04-17 16:29 32.12590 34.77019 1145 ft 101 kts 20°
2026-04-17 16:29 32.13324 34.77320 690 ft 116 kts 20°
2026-04-17 16:29 32.13876 34.77840 761 ft 99 kts 57°
2026-04-17 16:29 32.14099 34.78650 827 ft 111 kts 80°
2026-04-17 16:30 32.14159 34.79585 1069 ft 114 kts 75°
2026-04-17 16:30 32.14656 34.80238 1029 ft 115 kts 26°
2026-04-17 16:30 32.15369 34.80702 842 ft 122 kts 37°
2026-04-17 16:30 32.16008 34.81427 732 ft 132 kts 30°
2026-04-17 16:31 32.16814 34.81921 603 ft 119 kts 22°
2026-04-17 16:31 32.17536 34.82306 683 ft 111 kts 23°
2026-04-17 16:31 32.18228 34.82622 745 ft 96 kts 13°
2026-04-17 16:31 32.18820 34.82832 738 ft 94 kts 16°
2026-04-17 16:32 32.19215 34.83322 817 ft 98 kts 95°
2026-04-17 16:32 32.18941 34.84102 715 ft 105 kts 113°
2026-04-17 16:32 32.18698 34.84853 806 ft 100 kts 106°
2026-04-17 16:32 32.18344 34.85506 663 ft 102 kts 174°
2026-04-17 16:33 32.17738 34.85197 497 ft 90 kts 210°
2026-04-17 16:33 32.17622 34.84739 435 ft 66 kts 304°
2026-04-17 16:33 32.17805 34.84199 230 ft 71 kts 292°
2026-04-17 16:33 32.17949 34.83725 121 ft 51 kts 293°
2026-04-17 16:34 32.18038 34.83439 108 ft 24 kts 285°
2026-04-17 16:34 32.18061 34.83353 105 ft 12 kts 280°
2026-04-17 16:34 32.18037 34.83323 106 ft 13 kts 241°
2026-04-17 16:34 32.18030 34.83284 106 ft 0 kts 315°